»·PEaware :: RNGR823 KNGP-KNGP

RNGR823 :: KNGP-KNGP

FLIGHT INFORMATION

Flight Status: Arrived
Operator: Unknown
More flights by this operator :: More flights under this callsign
Pilot: USN Avenger (31125)
Aircraft: BEECH AIRCRAFT T-6A TEXAN
(TEX2)
More flights by this aircraft type
Origin: KNGP Corpus Christi NAS/Truax
United States
Destination: KNGP Corpus Christi NAS/Truax
United States
More flights between these airports :: More routes between these airports
Route: COURSE RULES KINGS4, COURSE RULES
File this flight plan on PilotEdge
Remarks:
Altitude:
(Current/Filed)
5,500ft
Speed:
(Current/Filed)
240kts
Departed: 28-Nov-23 06:49 AM
Arrived: 28-Nov-23 07:18 AM
Distance/Time
Traveled:
1nm/0:29
Distance/Time
To Go:
Arrived

Flight Plot

Page will automatically refresh every two minutes.

Flight plan parsing failed; only flown route is shown


Map Options




Map Legend


Flown Route
Filed Route
Departure Airport
Arrival Airport
Navaid (VOR, NDB)
Fix

Horizontal Profiles

Position Reports

Time Latitude Longitude Heading Altitude Ground
Speed
28-Nov-23 06:17 27.698532 -97.284280 159 22ft 0kts
28-Nov-23 06:18 27.698532 -97.284280 159 22ft 0kts
28-Nov-23 06:19 27.698532 -97.284280 159 22ft 0kts
28-Nov-23 06:20 27.698532 -97.284280 159 22ft 0kts
28-Nov-23 06:21 27.698532 -97.284280 159 22ft 0kts
28-Nov-23 06:22 27.698527 -97.284278 159 22ft 1kts
28-Nov-23 06:23 27.698529 -97.285605 338 22ft 8kts
28-Nov-23 06:24 27.698425 -97.287741 226 22ft 10kts
28-Nov-23 06:25 27.695990 -97.290556 225 22ft 0kts
28-Nov-23 06:26 27.695990 -97.290556 225 22ft 0kts
28-Nov-23 06:27 27.695990 -97.290556 225 22ft 0kts
28-Nov-23 06:28 27.695990 -97.290556 225 22ft 0kts
28-Nov-23 06:29 27.695990 -97.290556 225 22ft 0kts
28-Nov-23 06:30 27.695990 -97.290556 225 22ft 0kts
28-Nov-23 06:31 27.695990 -97.290556 225 22ft 0kts
28-Nov-23 06:33 27.695990 -97.290556 225 22ft 0kts
28-Nov-23 06:34 27.695990 -97.290556 225 22ft 0kts
28-Nov-23 06:35 27.695990 -97.290556 225 22ft 0kts
28-Nov-23 06:36 27.695990 -97.290556 225 22ft 0kts
28-Nov-23 06:37 27.695990 -97.290556 225 22ft 0kts
28-Nov-23 06:38 27.695990 -97.290556 225 22ft 0kts
28-Nov-23 06:39 27.695990 -97.290556 225 22ft 0kts
28-Nov-23 06:40 27.695990 -97.290556 225 22ft 0kts
28-Nov-23 06:41 27.695989 -97.290557 225 22ft 0kts
28-Nov-23 06:42 27.695988 -97.290558 225 22ft 0kts
28-Nov-23 06:43 27.695987 -97.290559 225 22ft 0kts
28-Nov-23 06:44 27.695986 -97.290560 225 22ft 0kts
28-Nov-23 06:45 27.695985 -97.290561 225 22ft 0kts
28-Nov-23 06:46 27.695713 -97.290870 225 22ft 0kts
28-Nov-23 06:47 27.695632 -97.290964 225 22ft 7kts
28-Nov-23 06:48 27.694635 -97.291097 136 22ft 0kts
28-Nov-23 06:49 27.678713 -97.269140 121 463ft 179kts
28-Nov-23 06:50 27.677621 -97.212407 26 1383ft 209kts
28-Nov-23 06:51 27.732644 -97.220500 358 3621ft 205kts
28-Nov-23 06:52 27.788875 -97.227441 346 5994ft 201kts
28-Nov-23 06:53 27.847484 -97.252439 336 5555ft 221kts
28-Nov-23 06:54 27.911763 -97.253776 13 6194ft 224kts
28-Nov-23 06:55 27.969643 -97.238053 14 8672ft 210kts
28-Nov-23 06:56 28.025834 -97.224452 12 11081ft 204kts
28-Nov-23 06:57 28.080122 -97.210732 11 13423ft 199kts
28-Nov-23 06:58 28.136387 -97.217658 330 14566ft 236kts
28-Nov-23 06:58 28.180728 -97.260960 314 14671ft 264kts
28-Nov-23 07:00 28.235413 -97.327418 312 16398ft 252kts
28-Nov-23 07:01 28.289603 -97.372854 358 17184ft 266kts
28-Nov-23 07:02 28.331399 -97.324402 107 12542ft 235kts
28-Nov-23 07:03 28.279216 -97.307913 204 6042ft 233kts
28-Nov-23 07:03 28.232259 -97.292676 140 2401ft 231kts
28-Nov-23 07:04 28.179334 -97.253528 146 2516ft 241kts
28-Nov-23 07:06 28.109312 -97.210898 159 1104ft 247kts
28-Nov-23 07:07 28.047757 -97.183528 157 1074ft 237kts
28-Nov-23 07:08 27.987620 -97.154697 160 1081ft 236kts
28-Nov-23 07:08 27.934748 -97.134523 161 1027ft 239kts
28-Nov-23 07:09 27.872252 -97.117873 201 1018ft 223kts
28-Nov-23 07:10 27.817453 -97.143438 201 982ft 201kts
28-Nov-23 07:11 27.764488 -97.166862 202 974ft 206kts
28-Nov-23 07:12 27.732775 -97.214352 258 1013ft 203kts
28-Nov-23 07:13 27.722411 -97.277718 258 1003ft 203kts
28-Nov-23 07:14 27.690990 -97.284199 135 987ft 196kts
28-Nov-23 07:15 27.703161 -97.280431 304 1012ft 110kts
28-Nov-23 07:16 27.696060 -97.292746 132 82ft 97kts
28-Nov-23 07:17 27.687144 -97.282518 112 22ft 27kts
28-Nov-23 07:18 27.687672 -97.281440 46 22ft 0kts

Navigation Log

Ident Type
Flight plan parsing failed, navigation log unavailable